createdAt,value
2023-04-05T00:01:43.988Z,1.40
2023-04-05T00:04:15.172Z,1.30
2023-04-05T00:06:44.018Z,1.40
2023-04-05T00:09:18.834Z,1.48
2023-04-05T00:11:50.493Z,1.30
2023-04-05T00:14:20.814Z,1.40
2023-04-05T00:16:49.100Z,1.70
2023-04-05T00:19:25.283Z,1.55
2023-04-05T00:21:54.929Z,1.95
2023-04-05T00:24:23.277Z,1.92
2023-04-05T00:27:01.369Z,1.58
2023-04-05T00:29:38.230Z,1.58
2023-04-05T00:32:08.837Z,1.20
2023-04-05T00:34:38.844Z,1.13
2023-04-05T00:37:06.960Z,1.48
2023-04-05T00:39:34.983Z,1.65
2023-04-05T00:42:06.101Z,1.05
2023-04-05T00:44:36.703Z,1.80
2023-04-05T00:47:09.350Z,1.90
2023-04-05T00:49:38.945Z,1.73
2023-04-05T00:52:07.059Z,1.30
2023-04-05T00:54:37.232Z,1.90
2023-04-05T00:57:07.249Z,1.88
2023-04-05T00:59:41.200Z,1.33
2023-04-05T01:02:18.665Z,2.63
2023-04-05T01:04:59.388Z,1.80
2023-04-05T01:07:44.207Z,1.80
2023-04-05T01:10:14.868Z,2.33
2023-04-05T01:12:45.187Z,2.13
2023-04-05T01:15:13.055Z,1.55
2023-04-05T01:17:42.349Z,2.60
2023-04-05T01:20:12.902Z,2.13
2023-04-05T01:23:25.979Z,2.10
2023-04-05T01:26:12.263Z,0.82
2023-04-05T01:28:49.284Z,1.35
2023-04-05T01:31:29.552Z,2.63
2023-04-05T01:34:07.989Z,1.95
2023-04-05T01:36:50.738Z,1.65
2023-04-05T01:39:21.469Z,1.65
2023-04-05T01:41:49.224Z,1.40
2023-04-05T01:44:17.022Z,1.73
2023-04-05T01:46:45.001Z,1.42
2023-04-05T01:49:14.695Z,1.65
2023-04-05T01:51:49.888Z,1.45
2023-04-05T01:54:18.131Z,1.80
2023-04-05T01:56:48.657Z,1.40
2023-04-05T01:59:21.426Z,1.73
2023-04-05T02:01:53.745Z,1.52
2023-04-05T02:04:23.741Z,1.35
2023-04-05T02:06:53.226Z,1.50
2023-04-05T02:09:25.761Z,1.50
2023-04-05T02:11:56.409Z,1.67
2023-04-05T02:14:26.228Z,1.08
2023-04-05T02:17:03.320Z,1.67
2023-04-05T02:19:58.104Z,0.98
2023-04-05T02:22:32.092Z,1.30
2023-04-05T02:25:04.924Z,1.67
2023-04-05T02:27:42.003Z,2.53
2023-04-05T02:30:21.442Z,2.25
2023-04-05T02:32:54.277Z,1.85
2023-04-05T02:35:34.520Z,1.52
2023-04-05T02:38:07.350Z,1.75
2023-04-05T02:40:52.097Z,1.40
2023-04-05T02:43:26.318Z,2.17
2023-04-05T02:46:04.003Z,1.30
2023-04-05T02:48:39.712Z,1.73
2023-04-05T02:51:18.457Z,1.92
2023-04-05T02:53:49.041Z,1.33
2023-04-05T02:56:23.810Z,1.63
2023-04-05T02:59:06.820Z,1.95
2023-04-05T03:01:49.835Z,1.15
2023-04-05T03:04:31.137Z,1.52
2023-04-05T03:07:05.736Z,1.70
2023-04-05T03:09:55.478Z,0.93
2023-04-05T03:12:39.850Z,1.08
2023-04-05T03:15:12.444Z,1.48
2023-04-05T03:17:51.222Z,2.33
2023-04-05T03:20:29.460Z,1.73
2023-04-05T03:23:06.739Z,2.72
2023-04-05T03:25:46.690Z,2.42
2023-04-05T03:28:22.223Z,1.85
2023-04-05T03:30:59.551Z,1.55
2023-04-05T03:33:27.656Z,1.65
2023-04-05T03:35:58.245Z,1.70
2023-04-05T03:38:32.549Z,1.90
2023-04-05T03:41:14.481Z,1.48
2023-04-05T03:43:44.658Z,2.35
2023-04-05T03:46:13.767Z,1.52
2023-04-05T03:48:43.201Z,1.85
2023-04-05T03:51:17.259Z,2.40
2023-04-05T03:53:45.742Z,2.25
2023-04-05T03:56:22.542Z,1.92
2023-04-05T03:58:59.545Z,1.83
2023-04-05T04:01:44.658Z,1.85
2023-04-05T04:04:18.648Z,1.83
2023-04-05T04:09:39.668Z,1.35
2023-04-05T04:12:13.411Z,2.05
2023-04-05T04:14:59.432Z,1.27
2023-04-05T04:17:51.112Z,1.65
2023-04-05T04:20:41.534Z,1.58
2023-04-05T04:23:34.980Z,1.90
2023-04-05T04:26:29.673Z,2.33
2023-04-05T04:29:21.372Z,2.60
2023-04-05T04:32:29.244Z,3.78
2023-04-05T04:35:27.279Z,2.90
2023-04-05T04:38:50.272Z,1.75
2023-04-05T04:41:59.481Z,2.47
2023-04-05T04:44:50.358Z,1.33
2023-04-05T04:47:49.370Z,1.50
2023-04-05T04:50:19.951Z,2.33
2023-04-05T04:52:50.896Z,2.10
2023-04-05T04:55:35.287Z,1.67
2023-04-05T04:58:10.118Z,1.95
2023-04-05T05:01:01.441Z,2.03
2023-04-05T05:03:48.523Z,2.65
2023-04-05T05:07:00.131Z,2.10
2023-04-05T05:09:52.022Z,2.58
2023-04-05T05:12:48.990Z,2.42
2023-04-05T05:15:30.154Z,2.30
2023-04-05T05:18:20.852Z,2.90
2023-04-05T05:21:04.298Z,2.33
2023-04-05T05:24:09.626Z,2.20
2023-04-05T05:29:44.174Z,2.53
2023-04-05T05:32:18.829Z,1.90
2023-04-05T05:35:01.675Z,6.13
2023-04-05T05:41:50.489Z,3.35
2023-04-05T05:44:36.917Z,3.08
2023-04-05T05:53:54.228Z,2.22
2023-04-05T05:57:26.280Z,3.58
2023-04-05T06:00:35.225Z,2.78
2023-04-05T06:03:07.487Z,1.60
2023-04-05T06:06:21.155Z,2.30
2023-04-05T06:09:04.224Z,1.83
2023-04-05T06:11:59.280Z,1.63
2023-04-05T06:14:33.151Z,1.27
2023-04-05T06:17:13.885Z,1.70
2023-04-05T06:19:54.642Z,2.33
2023-04-05T06:22:34.052Z,1.60
2023-04-05T06:25:13.842Z,2.20
2023-04-05T06:29:07.090Z,2.17
2023-04-05T06:31:38.268Z,3.50
2023-04-05T06:34:06.457Z,3.65
2023-04-05T06:36:38.948Z,2.40
2023-04-05T06:39:09.570Z,2.53
2023-04-05T06:41:39.836Z,2.67
2023-04-05T06:44:11.548Z,2.55
2023-04-05T06:46:48.209Z,2.63
2023-04-05T06:50:16.715Z,2.40
2023-04-05T06:59:28.350Z,5.00
2023-04-05T07:02:36.188Z,3.90
2023-04-05T07:05:17.654Z,3.08
2023-04-05T07:08:46.048Z,3.63
2023-04-05T07:11:22.007Z,2.60
2023-04-05T07:16:56.950Z,1.75
2023-04-05T07:20:21.920Z,1.88
2023-04-05T07:22:57.105Z,1.60
2023-04-05T07:25:36.900Z,1.50
2023-04-05T07:28:21.504Z,2.10
2023-04-05T07:30:58.107Z,1.75
2023-04-05T07:33:28.642Z,2.83
2023-04-05T07:35:57.217Z,1.63
2023-04-05T07:38:33.794Z,2.08
2023-04-05T07:44:14.316Z,1.90
2023-04-05T07:46:46.864Z,1.73
2023-04-05T07:49:17.535Z,1.92
2023-04-05T07:51:46.470Z,1.58
2023-04-05T07:54:14.293Z,1.52
2023-04-05T07:56:42.574Z,1.80
2023-04-05T07:59:10.484Z,1.80
2023-04-05T08:01:39.066Z,1.45
2023-04-05T08:04:09.439Z,1.60
2023-04-05T08:06:40.793Z,1.17
2023-04-05T08:09:11.257Z,1.25
2023-04-05T08:11:39.077Z,1.30
2023-04-05T08:14:07.090Z,1.60
2023-04-05T08:16:35.841Z,1.55
2023-04-05T08:19:03.496Z,1.30
2023-04-05T08:21:31.755Z,1.65
2023-04-05T08:24:00.203Z,1.60
2023-04-05T08:26:27.790Z,1.33
2023-04-05T08:28:55.445Z,1.80
2023-04-05T08:31:23.137Z,1.85
2023-04-05T08:33:50.881Z,1.42
2023-04-05T08:36:18.478Z,1.60
2023-04-05T08:38:46.142Z,2.10
2023-04-05T08:41:23.061Z,1.27
2023-04-05T08:43:59.946Z,1.40
2023-04-05T08:46:27.897Z,1.42
2023-04-05T08:48:56.755Z,1.77
2023-04-05T08:51:26.309Z,1.67
2023-04-05T08:53:54.223Z,1.40
2023-04-05T08:56:26.818Z,1.30
2023-04-05T08:59:06.065Z,1.63
2023-04-05T09:01:38.152Z,1.10
2023-04-05T09:04:31.265Z,1.45
2023-04-05T09:07:01.463Z,1.33
2023-04-05T09:09:35.978Z,1.10
2023-04-05T09:12:08.134Z,1.27
2023-04-05T09:14:38.004Z,0.93
2023-04-05T09:17:06.611Z,1.33
2023-04-05T09:19:34.243Z,1.20
2023-04-05T09:22:07.151Z,0.88
2023-04-05T09:24:43.888Z,1.17
2023-04-05T09:27:17.313Z,1.35
2023-04-05T09:29:48.729Z,1.10
2023-04-05T09:32:19.354Z,1.23
2023-04-05T09:34:48.063Z,1.10
2023-04-05T09:37:23.273Z,0.80
2023-04-05T09:40:01.725Z,1.10
2023-04-05T09:42:43.964Z,1.02
2023-04-05T09:45:12.057Z,1.13
2023-04-05T09:47:59.965Z,1.20
2023-04-05T09:50:27.600Z,1.10
2023-04-05T09:53:26.516Z,1.00
2023-04-05T09:55:54.303Z,1.00
2023-04-05T09:58:22.674Z,1.23
2023-04-05T10:01:06.232Z,1.02
2023-04-05T10:03:49.244Z,1.60
2023-04-05T10:06:17.696Z,0.90
2023-04-05T10:08:47.882Z,1.00
2023-04-05T10:11:18.697Z,0.90
2023-04-05T10:13:47.035Z,1.00
2023-04-05T10:16:20.474Z,1.00
2023-04-05T10:18:52.054Z,0.80
2023-04-05T10:21:27.438Z,1.10
2023-04-05T10:24:21.121Z,1.75
2023-04-05T10:26:57.825Z,1.02
2023-04-05T10:29:49.237Z,0.90
2023-04-05T10:32:43.771Z,1.30
2023-04-05T10:35:21.529Z,1.23
2023-04-05T10:38:04.721Z,0.95
2023-04-05T10:40:34.150Z,1.15
2023-04-05T10:43:04.256Z,1.27
2023-04-05T10:45:34.517Z,1.13
2023-04-05T10:48:18.345Z,1.13
2023-04-05T10:50:48.678Z,1.52
2023-04-05T10:53:17.050Z,1.02
2023-04-05T10:55:46.135Z,0.98
2023-04-05T10:58:19.834Z,1.23
2023-04-05T11:00:49.589Z,1.23
2023-04-05T11:03:46.995Z,1.20
2023-04-05T11:06:29.652Z,1.13
2023-04-05T11:09:09.229Z,0.90
2023-04-05T11:11:41.376Z,0.82
2023-04-05T11:14:23.611Z,1.00
2023-04-05T11:16:59.926Z,0.90
2023-04-05T11:19:43.171Z,0.88
2023-04-05T11:22:11.278Z,0.95
2023-04-05T11:25:06.449Z,0.90
2023-04-05T11:27:42.989Z,1.00
2023-04-05T11:30:58.069Z,1.13
2023-04-05T11:33:42.740Z,1.00
2023-04-05T11:36:11.245Z,0.88
2023-04-05T11:38:41.073Z,0.60
2023-04-05T11:41:17.857Z,0.90
2023-04-05T11:43:47.636Z,0.88
2023-04-05T11:46:19.214Z,0.95
2023-04-05T11:48:51.197Z,0.75
2023-04-05T11:51:22.968Z,0.70
2023-04-05T11:53:50.746Z,1.00
2023-04-05T11:56:20.197Z,0.88
2023-04-05T11:58:47.918Z,0.73
2023-04-05T12:01:15.964Z,0.80
2023-04-05T12:03:43.735Z,0.63
2023-04-05T12:06:11.461Z,0.55
2023-04-05T12:08:56.218Z,0.65
2023-04-05T12:11:30.487Z,0.90
2023-04-05T12:13:59.963Z,0.80
2023-04-05T12:16:29.144Z,0.93
2023-04-05T12:18:58.857Z,0.95
2023-04-05T12:21:27.957Z,0.80
2023-04-05T12:23:55.941Z,1.00
2023-04-05T12:26:24.078Z,1.02
2023-04-05T12:29:00.307Z,0.75
2023-04-05T12:31:45.535Z,0.63
2023-04-05T12:34:14.942Z,1.00
2023-04-05T12:36:46.679Z,0.65
2023-04-05T12:39:16.685Z,0.90
2023-04-05T12:41:44.463Z,0.90
2023-04-05T12:44:16.382Z,0.90
2023-04-05T12:46:45.873Z,0.82
2023-04-05T12:49:18.025Z,0.70
2023-04-05T12:51:46.841Z,1.05
2023-04-05T12:54:24.375Z,0.80
2023-04-05T12:56:54.492Z,0.80
2023-04-05T12:59:23.093Z,1.38
2023-04-05T13:01:51.552Z,0.75
2023-04-05T13:04:19.344Z,0.82
2023-04-05T13:06:47.822Z,0.70
2023-04-05T13:09:15.840Z,0.93
2023-04-05T13:11:43.453Z,1.02
2023-04-05T13:14:11.155Z,0.68
2023-04-05T13:16:38.874Z,0.98
2023-04-05T13:19:06.486Z,0.88
2023-04-05T13:21:34.142Z,0.80
2023-04-05T13:24:01.756Z,1.15
2023-04-05T13:26:29.634Z,1.13
2023-04-05T13:28:57.304Z,1.10
2023-04-05T13:31:24.998Z,0.65
2023-04-05T13:33:52.662Z,0.90
2023-04-05T13:36:20.414Z,1.33
2023-04-05T13:38:47.987Z,0.60
2023-04-05T13:41:16.285Z,0.70
2023-04-05T13:43:43.954Z,0.80
2023-04-05T13:46:11.835Z,0.95
2023-04-05T13:48:39.435Z,0.68
2023-04-05T13:51:07.098Z,1.13
2023-04-05T13:53:34.857Z,0.60
2023-04-05T13:56:02.452Z,0.85
2023-04-05T13:58:30.034Z,0.60
2023-04-05T14:00:57.661Z,1.10
2023-04-05T14:03:26.065Z,0.90
2023-04-05T14:05:55.392Z,0.68
2023-04-05T14:08:23.314Z,0.93
2023-04-05T14:10:51.523Z,0.90
2023-04-05T14:13:19.168Z,0.73
2023-04-05T14:15:46.969Z,0.68
2023-04-05T14:18:14.782Z,1.33
2023-04-05T14:20:42.863Z,0.80
2023-04-05T14:36:20.943Z,0.77
2023-04-05T14:38:48.630Z,0.70
2023-04-05T14:41:16.370Z,1.10
2023-04-05T14:43:44.069Z,1.08
2023-04-05T14:46:11.870Z,1.00
2023-04-05T14:48:39.551Z,1.52
2023-04-05T14:51:07.303Z,0.80
2023-04-05T14:53:35.046Z,1.35
2023-04-05T14:56:03.077Z,0.68
2023-04-05T14:58:30.841Z,1.20
2023-04-05T15:00:58.594Z,1.20
2023-04-05T15:03:26.503Z,1.02
2023-04-05T15:05:54.598Z,0.88
2023-04-05T15:08:22.325Z,0.95
2023-04-05T15:10:50.283Z,0.90
2023-04-05T15:13:20.892Z,1.27
2023-04-05T15:15:48.542Z,0.68
2023-04-05T15:18:16.222Z,0.93
2023-04-05T15:20:44.017Z,0.65
2023-04-05T15:23:11.802Z,0.80
2023-04-05T15:25:39.523Z,1.67
2023-04-05T15:28:07.383Z,1.00
2023-04-05T15:30:36.150Z,0.90
2023-04-05T15:33:04.252Z,0.77
2023-04-05T15:35:33.535Z,0.80
2023-04-05T15:38:01.824Z,1.38
2023-04-05T15:40:29.457Z,0.90
2023-04-05T15:42:57.172Z,1.05
2023-04-05T15:45:24.922Z,1.00
2023-04-05T15:47:52.703Z,1.08
2023-04-05T15:50:20.550Z,1.05
2023-04-05T15:52:48.496Z,0.85
2023-04-05T15:55:16.388Z,0.77
2023-04-05T15:57:44.141Z,0.70
2023-04-05T16:00:12.602Z,1.15
2023-04-05T16:02:40.481Z,1.00
2023-04-05T16:05:08.557Z,0.82
2023-04-05T16:07:36.416Z,0.82
2023-04-05T16:10:04.734Z,1.45
2023-04-05T16:12:32.422Z,1.27
2023-04-05T16:15:00.178Z,1.20
2023-04-05T16:17:28.077Z,0.88
2023-04-05T16:19:57.200Z,0.90
2023-04-05T16:22:25.864Z,0.93
2023-04-05T16:24:56.061Z,1.10
2023-04-05T16:27:23.869Z,1.13
2023-04-05T16:29:51.549Z,0.73
2023-04-05T16:32:19.299Z,0.70
2023-04-05T16:34:46.984Z,1.35
2023-04-05T16:37:14.652Z,0.90
2023-04-05T16:39:44.835Z,0.98
2023-04-05T16:42:12.712Z,1.35
2023-04-05T16:44:40.419Z,0.82
2023-04-05T16:47:08.258Z,1.40
2023-04-05T16:49:36.801Z,0.63
2023-04-05T16:52:04.518Z,0.98
2023-04-05T16:54:32.222Z,1.42
2023-04-05T16:56:59.958Z,1.15
2023-04-05T16:59:27.691Z,0.80
2023-04-05T17:01:55.813Z,1.25
2023-04-05T17:04:23.541Z,1.00
2023-04-05T17:06:51.709Z,0.98
2023-04-05T17:09:19.984Z,0.95
2023-04-05T17:11:47.968Z,0.90
2023-04-05T17:14:16.114Z,1.35
2023-04-05T17:16:43.904Z,0.82
2023-04-05T17:19:11.780Z,1.13
2023-04-05T17:21:39.955Z,1.02
2023-04-05T17:24:07.992Z,1.40
2023-04-05T17:26:35.928Z,1.33
2023-04-05T17:29:04.886Z,1.20
2023-04-05T17:31:33.563Z,1.23
2023-04-05T17:34:01.750Z,1.42
2023-04-05T17:36:33.460Z,1.00
2023-04-05T17:39:01.160Z,1.10
2023-04-05T17:41:28.848Z,1.30
2023-04-05T17:43:56.671Z,1.15
2023-04-05T17:46:34.088Z,1.27
2023-04-05T17:49:08.694Z,1.20
2023-04-05T17:51:42.279Z,1.50
2023-04-05T17:54:12.396Z,1.27
2023-04-05T17:56:40.442Z,1.08
2023-04-05T17:59:08.366Z,1.10
2023-04-05T18:01:37.923Z,0.95
2023-04-05T18:04:06.330Z,1.30
2023-04-05T18:06:35.891Z,1.10
2023-04-05T18:09:05.681Z,1.45
2023-04-05T18:11:33.591Z,2.13
2023-04-05T18:14:01.226Z,0.90
2023-04-05T18:16:29.482Z,1.55
2023-04-05T18:18:57.366Z,1.33
2023-04-05T18:21:25.081Z,1.33
2023-04-05T18:23:54.139Z,1.15
2023-04-05T18:26:21.987Z,1.63
2023-04-05T18:28:59.860Z,1.15
2023-04-05T18:31:29.253Z,1.20
2023-04-05T18:33:57.309Z,1.70
2023-04-05T18:36:25.920Z,2.00
2023-04-05T18:38:55.734Z,1.05
2023-04-05T18:41:23.498Z,4.50
2023-04-05T18:43:54.720Z,2.95
2023-04-05T18:46:23.548Z,1.90
2023-04-05T18:48:54.828Z,1.45
2023-04-05T18:51:24.002Z,1.40
2023-04-05T18:53:51.680Z,1.40
2023-04-05T18:56:19.318Z,1.63
2023-04-05T18:58:47.243Z,2.20
2023-04-05T19:01:16.193Z,1.13
2023-04-05T19:03:45.345Z,1.80
2023-04-05T19:06:13.654Z,1.33
2023-04-05T19:08:41.386Z,1.55
2023-04-05T19:11:13.252Z,1.10
2023-04-05T19:13:42.233Z,1.13
2023-04-05T19:16:10.095Z,1.52
2023-04-05T19:18:37.791Z,1.65
2023-04-05T19:21:08.135Z,1.50
2023-04-05T19:23:36.764Z,1.60
2023-04-05T19:26:04.473Z,1.42
2023-04-05T19:28:32.194Z,1.70
2023-04-05T19:31:00.405Z,1.45
2023-04-05T19:33:31.717Z,1.48
2023-04-05T19:36:02.842Z,1.27
2023-04-05T19:38:39.344Z,1.10
2023-04-05T19:41:14.962Z,1.70
2023-04-05T19:43:56.475Z,1.40
2023-04-05T19:46:54.472Z,1.20
2023-04-05T19:52:50.496Z,1.58
2023-04-05T19:55:34.273Z,1.63
2023-04-05T19:58:06.580Z,2.00
2023-04-05T20:00:43.732Z,1.50
2023-04-05T20:03:30.209Z,1.13
2023-04-05T20:06:10.908Z,1.60
2023-04-05T20:08:44.878Z,1.10
2023-04-05T20:11:13.839Z,1.52
2023-04-05T20:13:53.304Z,1.48
2023-04-05T20:16:29.630Z,2.03
2023-04-05T20:19:01.587Z,2.25
2023-04-05T20:21:29.491Z,1.50
2023-04-05T20:23:59.109Z,1.80
2023-04-05T20:26:29.104Z,1.52
2023-04-05T20:29:07.310Z,1.33
2023-04-05T20:31:39.984Z,1.65
2023-04-05T20:34:15.312Z,1.48
2023-04-05T20:36:57.180Z,1.73
2023-04-05T20:39:29.538Z,1.90
2023-04-05T20:41:57.545Z,2.38
2023-04-05T20:44:25.973Z,2.35
2023-04-05T20:46:56.403Z,1.80
2023-04-05T20:49:26.547Z,1.92
2023-04-05T20:51:55.829Z,2.00
2023-04-05T20:54:24.269Z,1.80
2023-04-05T20:56:52.475Z,1.80
2023-04-05T20:59:20.182Z,1.27
2023-04-05T21:01:49.098Z,1.88
2023-04-05T21:04:17.037Z,1.17
2023-04-05T21:06:44.704Z,1.50
2023-04-05T21:09:12.401Z,1.98
2023-04-05T21:11:40.060Z,1.40
2023-04-05T21:14:07.779Z,1.40
2023-04-05T21:16:35.667Z,1.30
2023-04-05T21:19:03.404Z,1.73
2023-04-05T21:21:31.355Z,1.75
2023-04-05T21:23:59.001Z,2.80
2023-04-05T21:26:26.667Z,1.40
2023-04-05T21:28:54.352Z,2.00
2023-04-05T21:31:22.101Z,1.42
2023-04-05T21:33:49.705Z,1.40
2023-04-05T21:36:17.451Z,1.27
2023-04-05T21:38:45.249Z,1.25
2023-04-05T21:41:12.976Z,1.70
2023-04-05T21:43:40.669Z,1.85
2023-04-05T21:46:08.300Z,1.80
2023-04-05T21:48:36.041Z,1.52
2023-04-05T21:51:03.742Z,1.10
2023-04-05T21:53:31.809Z,1.50
2023-04-05T21:55:59.464Z,1.88
2023-04-05T21:58:27.288Z,1.40
2023-04-05T22:00:55.038Z,1.70
2023-04-05T22:03:22.840Z,1.58
2023-04-05T22:05:50.506Z,1.38
2023-04-05T22:08:18.155Z,1.55
2023-04-05T22:10:46.055Z,1.35
2023-04-05T22:13:13.742Z,1.40
2023-04-05T22:15:41.450Z,1.60
2023-04-05T22:18:09.262Z,1.48
2023-04-05T22:20:37.031Z,1.48
2023-04-05T22:23:04.779Z,1.50
2023-04-05T22:25:32.410Z,1.45
2023-04-05T22:28:00.656Z,1.50
2023-04-05T22:30:37.196Z,1.73
2023-04-05T22:33:13.155Z,1.52
2023-04-05T22:35:41.847Z,1.80
2023-04-05T22:38:09.741Z,1.13
2023-04-05T22:40:37.362Z,1.58
2023-04-05T22:43:05.042Z,1.17
2023-04-05T22:45:32.773Z,1.75
2023-04-05T22:48:00.518Z,1.45
2023-04-05T22:50:28.188Z,1.92
2023-04-05T22:52:55.968Z,2.13
2023-04-05T22:55:23.667Z,1.73
2023-04-05T22:57:51.740Z,1.83
2023-04-05T23:00:19.498Z,1.65
2023-04-05T23:02:47.187Z,2.45
2023-04-05T23:05:14.979Z,1.38
2023-04-05T23:07:42.585Z,1.13
2023-04-05T23:10:10.568Z,1.60
2023-04-05T23:12:38.172Z,1.55
2023-04-05T23:15:06.638Z,1.27
2023-04-05T23:17:34.387Z,1.67
2023-04-05T23:20:02.194Z,1.50
2023-04-05T23:22:29.828Z,1.52
2023-04-05T23:25:00.702Z,1.80
2023-04-05T23:27:28.602Z,1.75
2023-04-05T23:29:56.257Z,1.80
2023-04-05T23:32:24.519Z,1.58
2023-04-05T23:34:53.096Z,1.70
2023-04-05T23:37:20.883Z,2.05
2023-04-05T23:39:48.554Z,2.10
2023-04-05T23:42:16.554Z,2.03
2023-04-05T23:44:44.240Z,1.63
2023-04-05T23:47:11.925Z,1.60
2023-04-05T23:49:39.536Z,1.55
2023-04-05T23:52:07.307Z,1.13
2023-04-05T23:54:35.001Z,1.83
2023-04-05T23:57:02.763Z,2.28
2023-04-05T23:59:31.044Z,1.63
